Terminal Aerodrome Forecast
Issued by NWS Twin Cities, MN

Home | Current Version | Previous Version | Graphics & Text | Print | Product List | Glossary On
Versions: 1 2 3 4 5 6 7 8 9 10 11 12 13 14 15 16 17 18 19 20 21 22 23 24 25 26 27 28
000
FTUS43 KMPX 201000 CCA
TAFMSP
TAF COR
KMSP 201051Z 2011/2112 16007KT 5SM BR BKN013 OVC025
      TEMPO 2011/2014 SCT013 OVC025
     FM201600 16008KT 6SM BR OVC015
     FM202000 16008KT P6SM OVC014
     FM210100 16007KT 6SM BR OVC007=

USA.gov is the U.S. government's official web portal to all federal, state and local government web resources and services.